Time;durP1;ratioP1;P1;durP2;ratioP2;P2;SDS_P1;SDS_P2;PMS_P1;PMS_P2;Temp;Humidity;BMP_temperature;BMP_pressure;BME280_temperature;BME280_humidity;BME280_pressure;Samples;Min_cycle;Max_cycle;Signal;HPM_P1;HPM_P2
2021/06/02 00:00:22;;;;;;;;;;;12.00;87.30;;;10.82;59.68;95544.06;10552259;28;2014;-82
2021/06/02 00:05:25;;;;;;;;;;;12.00;87.50;;;10.63;60.80;95543.16;10521992;28;1695;-84
2021/06/02 00:10:32;;;;;;;;;;;11.90;88.60;;;10.72;60.53;95546.81;10533455;28;1958;-83
2021/06/02 00:15:35;;;;;;;;;;;11.90;88.80;;;10.45;61.68;95543.78;10526095;28;1802;-83
2021/06/02 00:20:38;;;;;;;;;;;11.80;89.40;;;10.27;62.71;95546.03;10539402;28;2081;-82
2021/06/02 00:25:41;;;;;;;;;;;11.60;90.30;;;10.24;63.49;95543.91;10538459;28;1952;-83
2021/06/02 00:30:44;;;;;;;;;;;11.50;91.20;;;10.09;64.83;95533.19;10547703;28;1870;-81
2021/06/02 00:35:47;;;;;;;;;;;11.40;91.90;;;10.39;63.47;95534.16;10523294;28;1915;-83
2021/06/02 00:40:49;;;;;;;;;;;11.40;92.50;;;10.33;63.60;95533.38;10522026;28;2121;-83
2021/06/02 00:45:52;;;;;;;;;;;11.50;92.50;;;10.39;63.08;95534.16;10536214;28;1854;-83
2021/06/02 00:50:55;;;;;;;;;;;11.50;92.50;;;10.22;64.38;95535.28;10525254;28;1743;-82
2021/06/02 00:55:58;;;;;;;;;;;11.50;93.00;;;10.28;64.39;95536.88;10522178;28;1975;-82
2021/06/02 01:01:03;;;;;;;;;;;11.40;93.50;;;10.16;64.83;95528.31;10520400;28;2180;-84
2021/06/02 01:06:09;;;;;;;;;;;11.40;93.60;;;10.09;65.00;95527.03;10551123;28;1533;-83
2021/06/02 01:11:12;;;;;;;;;;;11.30;94.20;;;10.23;64.28;95528.03;10521360;28;2379;-83
2021/06/02 01:16:14;;;;;;;;;;;11.30;94.10;;;10.31;64.21;95523.97;10521458;28;2189;-82
2021/06/02 01:21:17;;;;;;;;;;;11.30;94.20;;;10.06;65.36;95533.75;10535423;28;2135;-84
2021/06/02 01:26:20;;;;;;;;;;;11.30;94.80;;;10.00;66.12;95529.50;10533594;28;2073;-85
2021/06/02 01:31:22;;;;;;;;;;;11.20;95.70;;;9.96;66.02;95529.22;10542633;28;1411;-83
2021/06/02 01:36:25;;;;;;;;;;;11.20;96.10;;;9.78;67.38;95526.34;10524127;28;1987;-82
2021/06/02 01:41:27;;;;;;;;;;;11.10;96.50;;;9.71;67.46;95524.75;10532628;28;2125;-83
2021/06/02 01:46:30;;;;;;;;;;;11.00;97.10;;;9.87;67.36;95528.19;10538887;28;1897;-83
2021/06/02 01:51:33;;;;;;;;;;;11.00;97.80;;;9.89;67.48;95522.56;10538178;28;2186;-83
2021/06/02 01:56:36;;;;;;;;;;;11.00;98.30;;;9.83;67.85;95513.72;10524508;28;2203;-84
2021/06/02 02:01:38;;;;;;;;;;;10.90;98.60;;;9.78;68.79;95510.25;10535751;28;2143;-82
2021/06/02 02:06:41;;;;;;;;;;;10.90;99.20;;;9.73;68.87;95514.56;10532955;28;2167;-84
2021/06/02 02:11:44;;;;;;;;;;;10.80;99.50;;;9.74;68.67;95515.38;10534657;28;2030;-83
2021/06/02 02:16:47;;;;;;;;;;;10.80;99.90;;;9.65;69.70;95523.16;10534670;28;1979;-83
2021/06/02 02:21:49;;;;;;;;;;;10.80;99.90;;;9.64;69.03;95526.94;10522027;28;1607;-83
2021/06/02 02:26:52;;;;;;;;;;;10.70;99.90;;;9.58;69.67;95519.97;10533583;28;2270;-84
2021/06/02 02:31:55;;;;;;;;;;;10.70;99.90;;;9.56;69.17;95524.81;10535226;28;1822;-83
2021/06/02 02:36:58;;;;;;;;;;;10.60;99.90;;;9.32;70.40;95532.66;10546454;28;2210;-82
2021/06/02 02:42:01;;;;;;;;;;;10.60;99.90;;;9.09;70.27;95539.38;10529148;28;2126;-81
2021/06/02 02:47:03;;;;;;;;;;;10.40;99.90;;;8.99;71.08;95536.72;10519287;28;1975;-81
2021/06/02 02:52:06;;;;;;;;;;;10.30;99.90;;;9.09;70.62;95528.63;10543092;28;1616;-81
2021/06/02 02:57:09;;;;;;;;;;;10.30;99.90;;;9.07;70.50;95525.44;10572640;28;2093;-82
2021/06/02 03:02:12;;;;;;;;;;;10.30;99.90;;;9.41;68.98;95522.97;10547364;28;2076;-82
2021/06/02 03:07:15;;;;;;;;;;;10.40;99.90;;;9.33;69.18;95530.75;10543367;28;2064;-82
2021/06/02 03:12:17;;;;;;;;;;;10.40;99.90;;;9.29;69.53;95532.38;10532226;28;2146;-81
2021/06/02 03:17:20;;;;;;;;;;;10.40;99.90;;;9.26;69.43;95531.03;10525873;28;1976;-82
2021/06/02 03:22:22;;;;;;;;;;;10.40;99.90;;;8.97;70.46;95541.53;10558655;28;2238;-82
2021/06/02 03:27:25;;;;;;;;;;;10.20;99.90;;;8.73;71.12;95551.19;10558257;28;2175;-83
2021/06/02 03:32:27;;;;;;;;;;;10.00;99.90;;;8.62;70.75;95551.16;10541728;28;2045;-81
2021/06/02 03:37:30;;;;;;;;;;;9.80;99.90;;;8.54;71.02;95556.25;10525791;28;1895;-83
2021/06/02 03:42:32;;;;;;;;;;;11.00;99.90;;;8.63;72.94;95552.75;10556686;28;2017;-82
2021/06/02 03:47:35;;;;;;;;;;;9.70;99.90;;;8.78;71.75;95562.72;10539181;28;2143;-82
2021/06/02 03:52:37;;;;;;;;;;;9.80;99.90;;;9.02;72.19;95568.34;10538276;28;1950;-81
2021/06/02 03:57:40;;;;;;;;;;;10.90;99.90;;;9.44;71.53;95565.34;10520075;28;2022;-83
2021/06/02 04:02:42;;;;;;;;;;;10.20;99.90;;;9.74;70.03;95572.53;10551309;28;1358;-84
2021/06/02 04:07:44;;;;;;;;;;;10.50;99.90;;;9.97;69.49;95573.00;10542827;28;2053;-84
2021/06/02 04:12:47;;;;;;;;;;;10.70;99.90;;;10.29;68.16;95565.34;10554062;28;1307;-83
2021/06/02 04:18:09;;;;;;;;;;;11.00;99.90;;;10.77;66.01;95587.13;10587540;28;1875;-84
2021/06/02 04:23:32;;;;;;;;;;;11.30;99.90;;;11.00;65.28;95587.50;10568686;28;2065;-86
2021/06/02 04:28:34;;;;;;;;;;;11.70;99.90;;;11.58;63.17;95595.63;10551873;28;2053;-82
2021/06/02 04:33:36;;;;;;;;;;;12.10;99.90;;;11.83;60.95;95603.50;10548637;28;1794;-84
2021/06/02 04:38:39;;;;;;;;;;;12.40;99.60;;;12.02;59.28;95600.03;10558661;28;1990;-83
2021/06/02 04:43:41;;;;;;;;;;;12.70;97.10;;;12.22;60.63;95593.63;10564487;28;1763;-81
2021/06/02 04:48:43;;;;;;;;;;;13.00;97.50;;;12.58;57.08;95596.66;10547250;28;2227;-81
2021/06/02 04:59:18;;;;;;;;;;;13.40;93.40;;;12.92;55.05;95599.16;10477186;28;2185;-85
2021/06/02 05:04:20;;;;;;;;;;;13.60;92.10;;;13.22;52.48;95601.41;10515563;28;2065;-80
2021/06/02 05:09:23;;;;;;;;;;;13.80;90.00;;;13.24;53.39;95604.63;10544790;28;2094;-84
2021/06/02 05:14:26;;;;;;;;;;;14.00;89.90;;;13.63;53.45;95605.34;10532386;28;1893;-85
2021/06/02 05:19:47;;;;;;;;;;;14.30;90.00;;;14.06;51.53;95606.72;10535211;28;2081;-85
2021/06/02 05:24:50;;;;;;;;;;;14.60;88.70;;;14.82;49.56;95600.84;10527807;28;1954;-84
2021/06/02 05:29:55;;;;;;;;;;;15.00;87.70;;;15.24;48.39;95610.47;10521875;28;1410;-83
2021/06/02 05:34:59;;;;;;;;;;;15.40;86.60;;;15.60;47.44;95617.75;10544072;28;1949;-83
2021/06/02 05:40:02;;;;;;;;;;;15.70;85.80;;;15.61;46.91;95617.41;10525498;28;2039;-83
2021/06/02 05:45:06;;;;;;;;;;;15.90;84.30;;;15.64;47.26;95624.94;10527655;28;1914;-84
2021/06/02 05:56:12;;;;;;;;;;;16.40;82.80;;;16.21;45.67;95616.97;10559550;28;2108;-88
2021/06/02 06:01:27;;;;;;;;;;;16.70;81.90;;;16.51;44.80;95606.38;10553311;28;1973;-87
2021/06/02 06:06:32;;;;;;;;;;;17.00;81.40;;;16.77;44.26;95611.09;10558387;28;2000;-86
2021/06/02 06:11:35;;;;;;;;;;;17.20;80.30;;;16.98;44.40;95614.78;10569684;28;1259;-85
2021/06/02 06:16:42;;;;;;;;;;;17.30;80.30;;;17.45;42.36;95614.97;10546400;28;1959;-86
2021/06/02 06:21:59;;;;;;;;;;;17.60;79.30;;;17.63;41.94;95611.13;10534572;28;2032;-88
2021/06/02 06:27:15;;;;;;;;;;;17.90;78.20;;;17.64;41.55;95610.00;10537394;28;2054;-88
2021/06/02 06:32:21;;;;;;;;;;;18.10;77.30;;;17.83;41.02;95613.19;10522705;28;2075;-86
2021/06/02 06:37:30;;;;;;;;;;;18.20;76.40;;;18.41;39.69;95618.28;10542709;28;2223;-85
2021/06/02 06:42:33;;;;;;;;;;;18.50;75.60;;;18.24;40.75;95619.13;10537123;28;2020;-83
2021/06/02 06:47:36;;;;;;;;;;;18.70;75.50;;;18.45;40.03;95619.22;10564312;28;2073;-86
2021/06/02 06:52:40;;;;;;;;;;;18.90;74.60;;;18.41;39.84;95624.53;10551972;28;2009;-87
2021/06/02 06:57:43;;;;;;;;;;;19.00;74.20;;;18.69;38.21;95627.59;10540536;28;2235;-88
2021/06/02 07:02:49;;;;;;;;;;;19.20;72.70;;;18.96;38.25;95626.34;10532636;28;1389;-86
2021/06/02 07:07:53;;;;;;;;;;;19.40;72.50;;;18.79;38.76;95627.25;10524108;28;1780;-85
2021/06/02 07:12:58;;;;;;;;;;;19.40;72.50;;;19.02;38.64;95635.09;10529748;28;1911;-87
2021/06/02 07:18:03;;;;;;;;;;;19.50;72.80;;;18.95;37.67;95632.91;10549792;28;1992;-88
2021/06/02 07:23:12;;;;;;;;;;;19.70;71.40;;;19.58;37.50;95638.41;10540086;28;1837;-88
2021/06/02 07:28:22;;;;;;;;;;;20.00;71.00;;;19.09;38.34;95632.66;10548115;28;1476;-90
2021/06/02 07:33:25;;;;;;;;;;;20.20;70.90;;;19.45;37.89;95641.03;10539068;28;2064;-87
2021/06/02 07:38:27;;;;;;;;;;;20.30;70.60;;;19.61;37.86;95643.19;10537488;28;1985;-84
2021/06/02 07:43:30;;;;;;;;;;;20.30;71.20;;;19.93;37.79;95645.13;10546191;28;2019;-80
2021/06/02 07:48:38;;;;;;;;;;;20.40;70.50;;;19.93;37.79;95644.34;10528771;28;2100;-79
2021/06/02 07:53:44;;;;;;;;;;;20.60;70.50;;;20.38;35.68;95638.88;10551180;28;1937;-78
2021/06/02 07:58:46;;;;;;;;;;;20.70;69.00;;;19.45;38.06;95637.50;10545513;28;1921;-80
2021/06/02 08:04:02;;;;;;;;;;;20.50;69.70;;;19.55;38.32;95639.03;10537921;28;1765;-81
2021/06/02 08:09:16;;;;;;;;;;;20.40;70.20;;;19.87;38.41;95648.41;10525772;28;2084;-82
2021/06/02 08:14:19;;;;;;;;;;;20.60;70.70;;;19.31;38.33;95656.06;10547606;28;2049;-80
2021/06/02 08:19:23;;;;;;;;;;;20.40;69.60;;;20.01;37.80;95659.81;10520030;28;1907;-78
2021/06/02 08:24:37;;;;;;;;;;;20.40;70.40;;;20.23;37.53;95655.88;10528712;28;2094;-79
2021/06/02 08:29:50;;;;;;;;;;;20.70;70.10;;;20.64;36.56;95652.22;10535469;28;1930;-80
2021/06/02 08:35:18;;;;;;;;;;;21.10;69.20;;;21.39;34.35;95656.53;10538939;28;1835;-79
2021/06/02 08:40:33;;;;;;;;;;;21.50;68.50;;;21.21;35.34;95653.22;10529801;28;1958;-80
2021/06/02 08:45:47;;;;;;;;;;;21.70;67.70;;;20.88;35.07;95667.03;10535123;28;2050;-81
2021/06/02 08:50:57;;;;;;;;;;;21.60;66.70;;;20.42;36.51;95661.63;10547606;28;1499;-80
2021/06/02 08:56:04;;;;;;;;;;;21.30;67.00;;;20.81;35.21;95661.34;10517166;28;2016;-80
2021/06/02 09:01:19;;;;;;;;;;;21.40;67.00;;;21.15;34.66;95662.78;10514787;28;1914;-81
2021/06/02 09:06:31;;;;;;;;;;;21.70;73.70;;;21.31;34.33;95658.22;10524871;28;2094;-80
2021/06/02 09:11:36;;;;;;;;;;;22.00;65.40;;;21.78;33.99;95649.44;10512524;28;2070;-80
2021/06/02 09:16:40;;;;;;;;;;;22.30;65.70;;;21.78;32.58;95655.72;10510845;28;2010;-79
2021/06/02 09:27:55;;;;;;;;;;;22.60;63.10;;;22.22;31.42;95658.50;10519948;28;1937;-79
2021/06/02 09:33:14;;;;;;;;;;;22.70;62.70;;;21.61;32.83;95660.66;10518393;28;1892;-80
2021/06/02 09:38:33;;;;;;;;;;;22.70;62.80;;;22.09;31.72;95665.19;10522749;28;2016;-81
2021/06/02 09:44:01;;;;;;;;;;;22.70;62.20;;;22.46;30.40;95667.69;10544589;28;1587;-79
2021/06/02 09:49:21;;;;;;;;;;;23.00;61.00;;;22.35;31.13;95667.44;10504109;28;1819;-79
2021/06/02 09:54:48;;;;;;;;;;;23.00;61.30;;;22.49;31.24;95672.47;10535029;28;1961;-80
2021/06/02 09:59:50;;;;;;;;;;;23.10;61.20;;;22.38;33.00;95678.47;10523055;28;1989;-81
2021/06/02 10:04:57;;;;;;;;;;;23.20;63.00;;;22.05;31.74;95678.72;10519809;28;2083;-80
2021/06/02 10:10:00;;;;;;;;;;;23.10;61.00;;;22.66;30.84;95683.91;10525401;28;2229;-81
2021/06/02 10:15:05;;;;;;;;;;;23.20;61.00;;;22.47;32.77;95674.78;10542517;28;2103;-81
2021/06/02 10:48:12;;;;;;;;;;;25.50;58.80;;;24.39;28.80;95678.31;10366730;23;1970;-81
2021/06/02 10:59:16;;;;;;;;;;;27.20;55.50;;;24.45;28.22;95682.34;10299498;28;1960;-79
2021/06/02 11:04:28;;;;;;;;;;;27.00;54.80;;;24.74;27.61;95687.16;10288994;28;1964;-78
2021/06/02 11:09:34;;;;;;;;;;;27.10;54.10;;;25.20;27.37;95673.44;10284947;28;2073;-78
2021/06/02 11:14:39;;;;;;;;;;;27.90;52.80;;;24.90;26.70;95680.75;10286570;28;2135;-78
2021/06/02 11:20:01;;;;;;;;;;;28.10;51.70;;;24.28;27.30;95676.13;10300937;28;1890;-81
2021/06/02 11:25:27;;;;;;;;;;;27.20;51.70;;;25.02;28.87;95664.06;10290343;28;2185;-80
2021/06/02 11:30:30;;;;;;;;;;;27.30;53.60;;;24.66;26.34;95668.97;10295768;28;2042;-79
2021/06/02 11:35:37;;;;;;;;;;;26.80;51.20;;;23.24;27.45;95677.06;10299993;28;1469;-81
2021/06/02 11:40:50;;;;;;;;;;;25.60;51.10;;;23.19;26.86;95673.44;10291854;28;2019;-80
2021/06/02 11:46:18;;;;;;;;;;;24.60;52.30;;;23.13;27.46;95669.38;10288083;28;1845;-86
2021/06/02 11:51:36;;;;;;;;;;;24.50;55.40;;;23.53;28.01;95665.56;10286687;28;1295;-88
2021/06/02 11:57:24;;;;;;;;;;;24.50;54.60;;;23.65;24.21;95665.47;10293029;28;2003;-82
2021/06/02 12:09:31;;;;;;;;;;;;;;;;;;;;;
2021/06/02 12:21:29;;;;;;;;;;;25.10;49.90;;;23.90;24.48;95665.19;9959437;29;1907;-86
2021/06/02 12:27:18;;;;;;;;;;;25.00;49.90;;;24.36;22.71;95657.84;9943985;29;2143;-82
2021/06/02 12:32:33;;;;;;;;;;;25.30;47.70;;;24.27;22.08;95655.31;10101144;29;1922;-85
2021/06/02 12:37:48;;;;;;;;;;;25.30;47.10;;;24.19;22.06;95661.84;10093651;29;2085;-83
2021/06/02 12:48:22;;;;;;;;;;;25.70;48.60;;;24.99;20.24;95667.53;10224044;29;1876;-79
2021/06/02 12:53:25;;;;;;;;;;;26.10;45.30;;;25.13;20.91;95659.56;10299843;28;1915;-80
2021/06/02 12:58:32;;;;;;;;;;;26.10;45.60;;;24.68;20.77;95663.91;10311594;28;2043;-81
2021/06/02 13:03:34;;;;;;;;;;;26.00;45.10;;;24.62;23.24;95659.06;10304757;28;1864;-82
2021/06/02 13:08:37;;;;;;;;;;;25.80;46.80;;;24.49;22.22;95662.03;10302130;28;2054;-82
2021/06/02 13:13:40;;;;;;;;;;;25.70;45.90;;;24.88;22.97;95661.09;10289168;28;2221;-79
2021/06/02 13:18:43;;;;;;;;;;;25.80;46.70;;;25.41;21.62;95658.38;10281624;28;2047;-85
2021/06/02 13:23:45;;;;;;;;;;;26.10;46.20;;;24.94;21.54;95665.09;10294737;28;2105;-84
2021/06/02 13:28:52;;;;;;;;;;;26.20;45.30;;;24.99;20.55;95662.84;10294359;28;2173;-81
2021/06/02 13:33:58;;;;;;;;;;;26.10;44.20;;;25.33;21.06;95654.75;10294897;28;1821;-82
2021/06/02 13:39:00;;;;;;;;;;;26.20;45.10;;;24.97;20.61;95658.88;10295661;28;2107;-82
2021/06/02 13:44:03;;;;;;;;;;;26.30;44.10;;;25.66;19.87;95666.97;10303432;28;2055;-82
2021/06/02 13:49:05;;;;;;;;;;;26.40;44.00;;;25.65;20.70;95666.19;10289929;28;2086;-81
2021/06/02 13:54:10;;;;;;;;;;;26.60;44.50;;;25.43;19.47;95665.09;10296536;28;2085;-83
2021/06/02 13:59:12;;;;;;;;;;;26.60;43.10;;;25.85;19.54;95658.59;10306741;28;1950;-83
2021/06/02 14:04:16;;;;;;;;;;;26.70;42.60;;;25.60;20.85;95661.00;10320594;28;2070;-82
2021/06/02 14:09:19;;;;;;;;;;;26.80;43.50;;;25.46;20.37;95663.56;10298402;28;2221;-85
2021/06/02 14:14:23;;;;;;;;;;;26.70;43.20;;;25.45;19.95;95657.28;10302187;28;1981;-85
2021/06/02 14:19:26;;;;;;;;;;;26.60;42.70;;;25.66;19.25;95662.28;10289711;28;1959;-82
2021/06/02 14:24:28;;;;;;;;;;;26.60;42.20;;;25.84;19.68;95659.78;10284512;28;2074;-80
2021/06/02 14:29:32;;;;;;;;;;;26.80;42.30;;;25.91;19.72;95659.06;10287028;28;1704;-83
2021/06/02 14:34:34;;;;;;;;;;;26.90;42.20;;;25.78;19.77;95670.31;10299068;28;2126;-80
2021/06/02 14:39:37;;;;;;;;;;;26.90;41.80;;;25.47;19.36;95676.94;10287579;28;2047;-82
2021/06/02 14:44:39;;;;;;;;;;;26.70;41.60;;;25.78;18.66;95664.81;10317619;28;2071;-84
2021/06/02 14:49:42;;;;;;;;;;;26.70;41.10;;;26.04;17.42;95663.94;10304481;28;1884;-86
2021/06/02 14:54:44;;;;;;;;;;;27.00;40.50;;;26.20;17.99;95666.47;10296049;28;1923;-82
2021/06/02 14:59:47;;;;;;;;;;;27.20;40.30;;;25.93;18.63;95667.75;10308074;28;2237;-83
2021/06/02 15:04:51;;;;;;;;;;;27.20;40.70;;;26.12;17.26;95665.59;10287538;28;1666;-86
2021/06/02 15:09:53;;;;;;;;;;;27.20;39.70;;;25.90;18.15;95663.00;10299164;28;1681;-83
2021/06/02 15:14:58;;;;;;;;;;;27.10;40.00;;;25.77;17.99;95671.50;10314996;28;1829;-85
2021/06/02 15:20:13;;;;;;;;;;;27.00;39.90;;;25.52;18.70;95662.09;10299801;28;2027;-83
2021/06/02 15:25:16;;;;;;;;;;;26.70;40.10;;;25.88;18.06;95655.09;10315119;28;1524;-84
2021/06/02 15:30:18;;;;;;;;;;;26.80;40.00;;;25.86;18.70;95647.22;10302749;28;2038;-80
2021/06/02 15:35:21;;;;;;;;;;;26.90;40.10;;;25.37;18.94;95650.06;10298731;28;1860;-82
2021/06/02 15:40:23;;;;;;;;;;;26.70;39.90;;;25.09;18.76;95650.47;10300382;28;2094;-82
2021/06/02 15:45:26;;;;;;;;;;;26.40;40.10;;;25.16;19.12;95645.06;10297323;28;1680;-83
2021/06/02 15:50:29;;;;;;;;;;;26.10;40.70;;;25.15;19.05;95648.97;10284690;28;1735;-82
2021/06/02 15:55:31;;;;;;;;;;;26.20;40.60;;;25.49;19.18;95646.31;10295895;28;1311;-83
2021/06/02 16:00:33;;;;;;;;;;;26.30;41.00;;;24.99;20.12;95640.84;10296371;28;1923;-81
2021/06/02 16:05:36;;;;;;;;;;;26.10;41.50;;;24.71;18.98;95652.19;10308581;28;1872;-83
2021/06/02 16:10:38;;;;;;;;;;;25.80;40.00;;;24.44;20.71;95647.78;10290620;28;2256;-80
2021/06/02 16:15:41;;;;;;;;;;;25.70;41.60;;;24.40;20.83;95652.44;10285363;28;1912;-81
2021/06/02 16:20:44;;;;;;;;;;;25.50;42.50;;;24.25;21.04;95645.84;10282972;28;1899;-82
2021/06/02 16:25:47;;;;;;;;;;;25.30;42.30;;;23.92;21.17;95652.69;10286889;28;2055;-81
2021/06/02 16:30:53;;;;;;;;;;;25.10;42.70;;;23.77;21.66;95658.25;10291310;28;1971;-83
2021/06/02 16:35:55;;;;;;;;;;;24.90;43.20;;;23.65;20.95;95661.91;10285257;28;2087;-83
2021/06/02 16:41:10;;;;;;;;;;;24.70;43.00;;;23.23;21.30;95665.31;10292886;28;2375;-87
2021/06/02 16:46:13;;;;;;;;;;;24.40;42.70;;;23.18;22.68;95666.38;10285972;28;2004;-82
2021/06/02 16:51:15;;;;;;;;;;;24.30;44.40;;;23.12;21.95;95667.78;10295802;28;1768;-84
2021/06/02 16:56:20;;;;;;;;;;;24.20;44.00;;;22.96;22.20;95669.75;10302294;28;1771;-86
2021/06/02 17:01:22;;;;;;;;;;;24.00;43.70;;;22.87;22.77;95671.91;10289395;28;1932;-82
2021/06/02 17:06:24;;;;;;;;;;;23.90;44.30;;;22.79;23.37;95667.38;10293591;28;1371;-83
2021/06/02 17:11:27;;;;;;;;;;;23.80;45.00;;;22.70;23.65;95683.19;10309891;28;1964;-82
2021/06/02 17:16:32;;;;;;;;;;;23.80;45.30;;;22.51;24.26;95681.94;10307080;28;2003;-84
2021/06/02 17:21:34;;;;;;;;;;;23.60;45.80;;;22.43;23.44;95680.16;10318034;28;1886;-86
2021/06/02 17:26:37;;;;;;;;;;;23.40;45.10;;;22.39;24.19;95679.25;10311762;28;1964;-84
2021/06/02 17:31:40;;;;;;;;;;;23.40;45.90;;;22.32;23.21;95684.56;10314881;28;2063;-81
2021/06/02 17:36:42;;;;;;;;;;;23.30;44.90;;;22.18;23.47;95687.72;10296812;28;1837;-81
2021/06/02 17:41:53;;;;;;;;;;;23.20;45.10;;;22.16;25.97;95697.44;10312219;28;2078;-82
2021/06/02 17:46:55;;;;;;;;;;;23.20;47.70;;;21.98;26.86;95700.44;10293633;28;2067;-82
2021/06/02 17:51:58;;;;;;;;;;;23.00;48.30;;;21.81;27.47;95703.44;10293039;28;1949;-84
2021/06/02 17:57:00;;;;;;;;;;;22.90;49.30;;;21.73;27.20;95702.47;10289621;28;1998;-81
2021/06/02 18:02:03;;;;;;;;;;;22.80;49.10;;;21.63;27.95;95715.81;10294719;28;1954;-84
2021/06/02 18:07:05;;;;;;;;;;;22.60;50.10;;;21.44;28.44;95728.19;10291032;28;2057;-83
2021/06/02 18:12:08;;;;;;;;;;;22.50;50.50;;;21.26;29.23;95732.25;10289407;28;2097;-85
2021/06/02 18:17:14;;;;;;;;;;;22.40;51.10;;;21.08;29.80;95739.09;10299100;28;2042;-84
2021/06/02 18:22:19;;;;;;;;;;;22.20;51.80;;;20.99;30.05;95734.56;10303098;28;1995;-83
2021/06/02 18:27:22;;;;;;;;;;;22.00;51.90;;;20.92;30.08;95745.22;10300546;28;2098;-84
2021/06/02 18:32:24;;;;;;;;;;;22.00;52.20;;;20.82;30.38;95742.94;10294638;28;2107;-82
2021/06/02 18:37:27;;;;;;;;;;;21.90;52.60;;;20.76;30.37;95747.84;10291103;28;2134;-81
2021/06/02 18:42:30;;;;;;;;;;;21.80;52.60;;;20.55;31.08;95751.75;10295608;28;1996;-83
2021/06/02 18:47:32;;;;;;;;;;;21.70;53.10;;;20.27;31.95;95757.81;10302945;28;2004;-83
2021/06/02 18:52:35;;;;;;;;;;;21.50;53.70;;;20.04;32.86;95748.38;10294500;28;1964;-82
2021/06/02 18:57:38;;;;;;;;;;;21.30;54.50;;;19.78;33.57;95763.03;10297260;28;1865;-83
2021/06/02 19:02:40;;;;;;;;;;;21.10;55.10;;;19.52;34.11;95770.56;10291499;28;1981;-82
2021/06/02 19:07:43;;;;;;;;;;;20.90;55.80;;;19.31;34.59;95771.31;10293177;28;1995;-84
2021/06/02 19:12:45;;;;;;;;;;;20.70;56.30;;;19.16;34.73;95777.34;10289119;28;1423;-81
2021/06/02 19:17:47;;;;;;;;;;;20.50;56.40;;;19.04;35.15;95790.88;10291818;28;2099;-82
2021/06/02 19:22:50;;;;;;;;;;;20.30;57.20;;;18.82;35.27;95798.13;10289345;28;2188;-82
2021/06/02 19:27:53;;;;;;;;;;;20.20;57.20;;;18.71;35.88;95805.06;10311444;28;1759;-82
2021/06/02 19:32:59;;;;;;;;;;;20.00;57.20;;;18.38;38.26;95821.09;10319288;28;1285;-82
2021/06/02 19:38:06;;;;;;;;;;;19.80;59.10;;;18.21;37.66;95832.00;10320056;28;1980;-82
2021/06/02 19:43:09;;;;;;;;;;;19.60;59.30;;;18.19;37.29;95840.47;10296841;28;2043;-82
2021/06/02 19:48:12;;;;;;;;;;;19.50;58.90;;;18.06;37.16;95842.22;10288256;28;1979;-82
2021/06/02 19:53:15;;;;;;;;;;;19.40;58.60;;;17.99;37.03;95847.34;10288383;28;1566;-82
2021/06/02 19:58:17;;;;;;;;;;;19.20;59.00;;;17.85;37.78;95857.56;10299089;28;1844;-81
2021/06/02 20:03:19;;;;;;;;;;;19.20;59.20;;;17.63;40.26;95865.84;10289385;28;1951;-82
2021/06/02 20:08:22;;;;;;;;;;;19.00;61.60;;;17.60;40.00;95864.53;10283356;28;1986;-82
2021/06/02 20:13:24;;;;;;;;;;;18.90;62.10;;;17.46;42.09;95870.09;10282802;28;1490;-82
2021/06/02 20:18:27;;;;;;;;;;;18.80;63.30;;;17.24;42.76;95875.59;10306955;28;1533;-83
2021/06/02 20:23:29;;;;;;;;;;;18.60;64.60;;;17.18;42.34;95877.66;10292564;28;2029;-83
2021/06/02 20:28:38;;;;;;;;;;;18.50;64.50;;;17.19;41.94;95887.41;10287965;28;2097;-84
2021/06/02 20:33:40;;;;;;;;;;;18.40;64.40;;;17.13;41.46;95888.66;10308531;28;1833;-82
2021/06/02 20:38:43;;;;;;;;;;;18.30;64.10;;;17.09;40.93;95889.59;10303763;28;1939;-83
2021/06/02 20:43:45;;;;;;;;;;;18.30;63.60;;;17.05;41.36;95900.28;10287638;28;2019;-80
2021/06/02 20:48:47;;;;;;;;;;;18.30;63.60;;;16.91;42.41;95896.84;10289670;28;2113;-82
2021/06/02 20:53:49;;;;;;;;;;;18.20;64.80;;;16.80;43.32;95899.03;10317533;28;1764;-84
2021/06/02 20:58:52;;;;;;;;;;;18.00;65.70;;;16.63;45.33;95905.09;10289090;28;1631;-85
2021/06/02 21:03:54;;;;;;;;;;;17.90;67.00;;;16.54;44.46;95906.97;10297331;28;1915;-83
2021/06/02 21:08:56;;;;;;;;;;;17.80;66.50;;;16.51;46.03;95910.28;10304838;28;2031;-84
2021/06/02 21:13:58;;;;;;;;;;;17.70;68.20;;;16.44;46.28;95912.63;10312500;28;2083;-84
2021/06/02 21:19:01;;;;;;;;;;;17.60;69.10;;;16.38;47.35;95911.13;10283671;28;1972;-86
2021/06/02 21:24:03;;;;;;;;;;;17.50;70.20;;;16.26;48.57;95921.72;10290674;28;2113;-82
2021/06/02 21:29:06;;;;;;;;;;;17.50;71.20;;;16.15;48.43;95923.84;10296388;28;1320;-86
2021/06/02 21:34:08;;;;;;;;;;;17.30;71.40;;;16.06;48.94;95928.41;10292445;28;1365;-83
2021/06/02 21:39:11;;;;;;;;;;;17.30;72.00;;;15.93;49.94;95933.53;10290750;28;1985;-83
2021/06/02 21:44:13;;;;;;;;;;;17.10;72.70;;;15.78;50.92;95933.06;10289930;28;2101;-85
2021/06/02 21:49:16;;;;;;;;;;;17.00;73.70;;;15.72;51.58;95931.56;10287550;28;1546;-83
2021/06/02 21:54:18;;;;;;;;;;;16.90;74.50;;;15.63;52.08;95939.56;10297011;28;1492;-83
2021/06/02 21:59:20;;;;;;;;;;;16.80;75.10;;;15.53;52.70;95947.91;10284689;28;1948;-85
2021/06/02 22:04:23;;;;;;;;;;;16.70;76.00;;;15.49;53.10;95955.81;10288012;28;1413;-84
2021/06/02 22:09:29;;;;;;;;;;;16.60;76.70;;;15.41;53.07;95962.72;10285805;28;1684;-81
2021/06/02 22:14:31;;;;;;;;;;;16.60;76.70;;;15.33;53.83;95951.75;10296722;28;2159;-81
2021/06/02 22:19:34;;;;;;;;;;;16.50;77.60;;;15.28;54.41;95957.31;10306579;28;1954;-81
2021/06/02 22:24:36;;;;;;;;;;;16.40;78.00;;;15.17;55.27;95962.09;10300191;28;2095;-82
2021/06/02 22:29:38;;;;;;;;;;;16.40;79.00;;;15.08;56.04;95964.69;10301635;28;2058;-82
2021/06/02 22:34:41;;;;;;;;;;;16.30;79.90;;;15.04;56.86;95963.66;10292128;28;2137;-81
2021/06/02 22:39:48;;;;;;;;;;;16.20;80.80;;;14.95;57.21;95965.44;10296254;28;1995;-85
2021/06/02 22:44:54;;;;;;;;;;;16.10;81.40;;;14.86;58.09;95973.44;10297635;28;1565;-84
2021/06/02 22:49:58;;;;;;;;;;;16.00;82.20;;;14.83;58.70;95970.53;10275044;28;1991;-81
2021/06/02 22:55:01;;;;;;;;;;;15.90;83.20;;;14.76;59.08;95979.03;10287860;28;1861;-84
2021/06/02 23:00:05;;;;;;;;;;;15.90;83.80;;;14.62;59.15;95980.84;10290295;28;2191;-80
2021/06/02 23:05:08;;;;;;;;;;;15.80;84.00;;;14.49;60.02;95973.47;10300919;28;2059;-84
2021/06/02 23:10:12;;;;;;;;;;;15.70;84.60;;;14.41;61.18;95987.63;10294104;28;1816;-83
2021/06/02 23:15:16;;;;;;;;;;;15.70;85.50;;;14.36;61.80;95988.50;10323728;28;1869;-82
2021/06/02 23:20:23;;;;;;;;;;;15.60;86.30;;;14.30;62.94;95995.06;10293419;28;2000;-84
2021/06/02 23:32:11;;;;;;;;;;;15.30;88.10;;;14.15;63.36;95979.88;10146160;29;1946;-83
